Orchard, Iowa
Current Conditions -  °F | °C
As of 12:35 PM on Saturday 25 Oct 2014 (Local Time) from KCCY Reporting Station
Clear Clear  
Wind Chill: 64°   Ceiling: Unl
Heat Index: 64°   Visibility: 10mi
Dew Point: 34°   Wind: 15mph
Humidity: 32%   Direction: 320°NW
Pressure: 30.09"   Gusts: 23mph
Location:  43.23°N, 92.77°W
Report Text: KCCY 251735Z AUTO 32013G20KT 10SM CLR 18/01 A3009 RMK AO2
Loading
Personal Weather Stations






























Interactive Weather Map
Tropical Storm Tracking
New forecast layout! Learn more

10-Day Weather Forecast

Advertisements
Track Severe Weather on mobile